Fukuoka Airport
RJFF : now visible

Airfield :











YOU CAN JOIN US ON...

 
LOGIN :

Register | Disclaimer

   EN    FR    IT 

 









Legend :    VFR   Marginal VFR   IFR   Intensive IFR   Very Intensive IFR
Visi :
Ceiling :
>= 8 km
>= 3000ft
5 to 8 km
1000 to 3000 ft
1500m to 5 km
500 to 1000 ft
800 to 1500m
200 to 500 ft
< 800m
< 200 ft
Symbols :   Thunderstorms  Fog  Heavy snow  Heavy precipitations  Wind > 20 kt







- Airport Elevation : 32 ft
- IATA code : FUK


RJFF - Fukuoka

CURRENT METAR :
  • 220230Z 31010KT 9999 FEW040 22/14 Q1014 NOSIG RMK 1CU040 A2996

EXPIRED METARs :
  • 220200Z 31008KT 280V340 9999 FEW045 22/15 Q1014 NOSIG
  • 220130Z 29005KT 200V340 CAVOK 22/15 Q1014 NOSIG RMK A2997
  • 220100Z VRB03KT CAVOK 21/14 Q1015 BECMG 33009KT
  • 220030Z 30006KT 230V010 CAVOK 21/15 Q1015 NOSIG RMK A2998
  • 220000Z VRB03KT 9000 FEW045 BKN/// 20/15 Q1015 BECMG 33007KT RMK 1CU045 A2998

TAF TAF RJFF
Valid from the 22 at 00:00 until the 23 at 06:00 UTC


212305Z 2200/2306 33009KT 9999 FEW030
BECMG 2212/2215 14005KT
RJJJ FIR / Asia



MET'MAP, your aeronautical weather chart ! - Copyright ORBIFLY December 2007 - Disclaimer

ORBIFLY MET'MAP TEAM :

Programming & Development : Alexandra Zaïnal
Concept & Development : Baudouin d'Aumeries
Co-Development & Prog : Marc-Olivier Méhu
Technical & hardware support : Manuel Goepfert

Contact : metmap@orbifly.com




SOURCES & CREDITS :

   NOAA       Earth
Advisory